sensor_id;sensor_type;location;lat;lon;timestamp;P1;durP1;ratioP1;P2;durP2;ratioP2
64065;SDS011;50318;54.760;9.408;2023-02-19T00:01:09;51.58;;;15.20;;
64065;SDS011;50318;54.760;9.408;2023-02-19T00:03:40;41.10;;;14.70;;
64065;SDS011;50318;54.760;9.408;2023-02-19T00:06:09;41.63;;;10.38;;
64065;SDS011;50318;54.760;9.408;2023-02-19T00:08:36;36.72;;;10.38;;
64065;SDS011;50318;54.760;9.408;2023-02-19T00:11:07;40.53;;;9.98;;
64065;SDS011;50318;54.760;9.408;2023-02-19T00:13:40;41.80;;;10.27;;
64065;SDS011;50318;54.760;9.408;2023-02-19T00:16:08;45.28;;;10.85;;
64065;SDS011;50318;54.760;9.408;2023-02-19T00:18:37;41.40;;;9.27;;
64065;SDS011;50318;54.760;9.408;2023-02-19T00:21:03;36.67;;;9.27;;
64065;SDS011;50318;54.760;9.408;2023-02-19T00:23:29;42.88;;;9.23;;
64065;SDS011;50318;54.760;9.408;2023-02-19T00:25:56;44.92;;;9.10;;
64065;SDS011;50318;54.760;9.408;2023-02-19T00:28:26;44.60;;;9.93;;
64065;SDS011;50318;54.760;9.408;2023-02-19T00:30:53;39.40;;;9.57;;
64065;SDS011;50318;54.760;9.408;2023-02-19T00:33:19;46.55;;;9.82;;
64065;SDS011;50318;54.760;9.408;2023-02-19T00:35:45;44.15;;;9.43;;
64065;SDS011;50318;54.760;9.408;2023-02-19T00:38:11;45.65;;;9.68;;
64065;SDS011;50318;54.760;9.408;2023-02-19T00:40:37;45.75;;;9.63;;
64065;SDS011;50318;54.760;9.408;2023-02-19T00:43:04;42.28;;;9.52;;
64065;SDS011;50318;54.760;9.408;2023-02-19T00:45:30;46.90;;;9.80;;
64065;SDS011;50318;54.760;9.408;2023-02-19T00:47:56;40.50;;;8.95;;
64065;SDS011;50318;54.760;9.408;2023-02-19T00:50:22;38.92;;;9.02;;
64065;SDS011;50318;54.760;9.408;2023-02-19T00:52:49;42.60;;;9.02;;
64065;SDS011;50318;54.760;9.408;2023-02-19T00:55:15;45.17;;;8.85;;
64065;SDS011;50318;54.760;9.408;2023-02-19T00:57:41;41.60;;;8.70;;
64065;SDS011;50318;54.760;9.408;2023-02-19T01:00:08;42.28;;;8.85;;
64065;SDS011;50318;54.760;9.408;2023-02-19T01:02:34;37.40;;;8.40;;
64065;SDS011;50318;54.760;9.408;2023-02-19T01:05:01;41.92;;;8.30;;
64065;SDS011;50318;54.760;9.408;2023-02-19T01:07:27;45.35;;;8.85;;
64065;SDS011;50318;54.760;9.408;2023-02-19T01:09:53;42.20;;;8.75;;
64065;SDS011;50318;54.760;9.408;2023-02-19T01:12:19;46.05;;;8.93;;
64065;SDS011;50318;54.760;9.408;2023-02-19T01:14:45;32.78;;;8.90;;
64065;SDS011;50318;54.760;9.408;2023-02-19T01:17:13;35.85;;;7.82;;
64065;SDS011;50318;54.760;9.408;2023-02-19T01:19:39;43.75;;;8.52;;
64065;SDS011;50318;54.760;9.408;2023-02-19T01:22:05;40.03;;;8.25;;
64065;SDS011;50318;54.760;9.408;2023-02-19T01:24:31;40.47;;;8.75;;
64065;SDS011;50318;54.760;9.408;2023-02-19T01:26:58;46.20;;;9.07;;
64065;SDS011;50318;54.760;9.408;2023-02-19T01:29:24;41.20;;;8.75;;
64065;SDS011;50318;54.760;9.408;2023-02-19T01:31:50;48.33;;;9.82;;
64065;SDS011;50318;54.760;9.408;2023-02-19T01:34:16;36.70;;;9.23;;
64065;SDS011;50318;54.760;9.408;2023-02-19T01:36:42;36.50;;;9.23;;
64065;SDS011;50318;54.760;9.408;2023-02-19T01:39:09;40.95;;;8.80;;
64065;SDS011;50318;54.760;9.408;2023-02-19T01:41:36;50.13;;;9.70;;
64065;SDS011;50318;54.760;9.408;2023-02-19T01:46:34;37.80;;;9.30;;
64065;SDS011;50318;54.760;9.408;2023-02-19T01:49:05;41.72;;;8.85;;
64065;SDS011;50318;54.760;9.408;2023-02-19T01:51:38;33.50;;;8.20;;
64065;SDS011;50318;54.760;9.408;2023-02-19T01:54:10;36.33;;;9.13;;
64065;SDS011;50318;54.760;9.408;2023-02-19T01:56:39;42.13;;;9.13;;
64065;SDS011;50318;54.760;9.408;2023-02-19T01:59:08;45.65;;;9.55;;
64065;SDS011;50318;54.760;9.408;2023-02-19T02:01:36;33.58;;;8.95;;
64065;SDS011;50318;54.760;9.408;2023-02-19T02:04:04;35.45;;;9.00;;
64065;SDS011;50318;54.760;9.408;2023-02-19T02:06:37;39.38;;;9.57;;
64065;SDS011;50318;54.760;9.408;2023-02-19T02:09:11;38.67;;;9.88;;
64065;SDS011;50318;54.760;9.408;2023-02-19T02:11:39;36.15;;;9.50;;
64065;SDS011;50318;54.760;9.408;2023-02-19T02:14:10;36.10;;;9.20;;
64065;SDS011;50318;54.760;9.408;2023-02-19T02:21:41;36.70;;;10.07;;
64065;SDS011;50318;54.760;9.408;2023-02-19T02:27:48;40.45;;;9.68;;
64065;SDS011;50318;54.760;9.408;2023-02-19T02:35:53;34.17;;;10.25;;
64065;SDS011;50318;54.760;9.408;2023-02-19T02:38:24;32.95;;;9.73;;
64065;SDS011;50318;54.760;9.408;2023-02-19T02:40:54;43.35;;;10.35;;
64065;SDS011;50318;54.760;9.408;2023-02-19T02:43:21;38.33;;;9.38;;
64065;SDS011;50318;54.760;9.408;2023-02-19T02:45:48;39.55;;;9.95;;
64065;SDS011;50318;54.760;9.408;2023-02-19T02:48:32;45.30;;;10.75;;
64065;SDS011;50318;54.760;9.408;2023-02-19T02:53:52;41.55;;;10.00;;
64065;SDS011;50318;54.760;9.408;2023-02-19T02:56:23;32.15;;;9.60;;
64065;SDS011;50318;54.760;9.408;2023-02-19T02:58:50;49.53;;;10.48;;
64065;SDS011;50318;54.760;9.408;2023-02-19T03:01:25;42.78;;;10.73;;
64065;SDS011;50318;54.760;9.408;2023-02-19T03:04:04;39.60;;;9.90;;
64065;SDS011;50318;54.760;9.408;2023-02-19T03:06:34;43.85;;;10.32;;
64065;SDS011;50318;54.760;9.408;2023-02-19T03:11:35;37.00;;;9.77;;
64065;SDS011;50318;54.760;9.408;2023-02-19T03:16:35;38.58;;;10.35;;
64065;SDS011;50318;54.760;9.408;2023-02-19T03:19:04;38.80;;;11.32;;
64065;SDS011;50318;54.760;9.408;2023-02-19T03:22:09;44.35;;;10.90;;
64065;SDS011;50318;54.760;9.408;2023-02-19T03:25:06;42.95;;;10.82;;
64065;SDS011;50318;54.760;9.408;2023-02-19T03:27:56;43.38;;;11.30;;
64065;SDS011;50318;54.760;9.408;2023-02-19T03:30:46;45.38;;;11.68;;
64065;SDS011;50318;54.760;9.408;2023-02-19T03:33:37;35.90;;;10.88;;
64065;SDS011;50318;54.760;9.408;2023-02-19T03:36:29;44.25;;;11.75;;
64065;SDS011;50318;54.760;9.408;2023-02-19T03:39:22;41.47;;;11.77;;
64065;SDS011;50318;54.760;9.408;2023-02-19T03:47:18;42.55;;;12.93;;
64065;SDS011;50318;54.760;9.408;2023-02-19T03:49:57;42.85;;;13.80;;
64065;SDS011;50318;54.760;9.408;2023-02-19T03:55:12;47.40;;;14.13;;
64065;SDS011;50318;54.760;9.408;2023-02-19T04:00:37;41.38;;;13.52;;
64065;SDS011;50318;54.760;9.408;2023-02-19T04:06:14;43.80;;;14.07;;
64065;SDS011;50318;54.760;9.408;2023-02-19T04:08:48;50.97;;;13.68;;
64065;SDS011;50318;54.760;9.408;2023-02-19T04:11:18;41.78;;;12.80;;
64065;SDS011;50318;54.760;9.408;2023-02-19T04:13:59;41.08;;;11.75;;
64065;SDS011;50318;54.760;9.408;2023-02-19T04:16:32;47.25;;;13.45;;
64065;SDS011;50318;54.760;9.408;2023-02-19T04:19:02;41.75;;;12.38;;
64065;SDS011;50318;54.760;9.408;2023-02-19T04:21:40;40.63;;;12.20;;
64065;SDS011;50318;54.760;9.408;2023-02-19T04:24:09;40.28;;;11.30;;
64065;SDS011;50318;54.760;9.408;2023-02-19T04:26:41;40.95;;;11.35;;
64065;SDS011;50318;54.760;9.408;2023-02-19T04:29:08;41.92;;;10.95;;
64065;SDS011;50318;54.760;9.408;2023-02-19T04:31:34;42.55;;;11.10;;
64065;SDS011;50318;54.760;9.408;2023-02-19T04:34:03;38.03;;;10.50;;
64065;SDS011;50318;54.760;9.408;2023-02-19T04:36:30;38.25;;;11.02;;
64065;SDS011;50318;54.760;9.408;2023-02-19T04:38:57;40.33;;;11.10;;
64065;SDS011;50318;54.760;9.408;2023-02-19T04:41:24;36.22;;;10.55;;
64065;SDS011;50318;54.760;9.408;2023-02-19T04:43:50;38.95;;;11.15;;
64065;SDS011;50318;54.760;9.408;2023-02-19T04:46:16;36.80;;;10.70;;
64065;SDS011;50318;54.760;9.408;2023-02-19T04:48:42;38.30;;;11.52;;
64065;SDS011;50318;54.760;9.408;2023-02-19T04:51:09;36.15;;;10.98;;
64065;SDS011;50318;54.760;9.408;2023-02-19T04:53:35;38.85;;;11.60;;
64065;SDS011;50318;54.760;9.408;2023-02-19T04:56:09;33.90;;;11.30;;
64065;SDS011;50318;54.760;9.408;2023-02-19T04:58:37;39.63;;;11.65;;
64065;SDS011;50318;54.760;9.408;2023-02-19T05:01:04;32.78;;;10.63;;
64065;SDS011;50318;54.760;9.408;2023-02-19T05:03:30;35.28;;;11.05;;
64065;SDS011;50318;54.760;9.408;2023-02-19T05:06:00;37.83;;;11.40;;
64065;SDS011;50318;54.760;9.408;2023-02-19T05:08:27;40.28;;;11.60;;
64065;SDS011;50318;54.760;9.408;2023-02-19T05:10:56;39.33;;;10.80;;
64065;SDS011;50318;54.760;9.408;2023-02-19T05:13:23;35.58;;;11.07;;
64065;SDS011;50318;54.760;9.408;2023-02-19T05:15:53;33.53;;;9.57;;
64065;SDS011;50318;54.760;9.408;2023-02-19T05:18:21;37.65;;;9.90;;
64065;SDS011;50318;54.760;9.408;2023-02-19T05:20:47;33.00;;;9.43;;
64065;SDS011;50318;54.760;9.408;2023-02-19T05:23:14;31.00;;;10.52;;
64065;SDS011;50318;54.760;9.408;2023-02-19T05:25:40;37.20;;;10.68;;
64065;SDS011;50318;54.760;9.408;2023-02-19T05:28:06;32.58;;;10.68;;
64065;SDS011;50318;54.760;9.408;2023-02-19T05:30:33;40.35;;;10.65;;
64065;SDS011;50318;54.760;9.408;2023-02-19T05:33:00;38.92;;;11.20;;
64065;SDS011;50318;54.760;9.408;2023-02-19T05:35:26;42.38;;;11.32;;
64065;SDS011;50318;54.760;9.408;2023-02-19T05:37:52;36.22;;;9.88;;
64065;SDS011;50318;54.760;9.408;2023-02-19T05:40:18;31.75;;;9.38;;
64065;SDS011;50318;54.760;9.408;2023-02-19T05:42:44;31.77;;;9.05;;
64065;SDS011;50318;54.760;9.408;2023-02-19T05:45:10;40.03;;;9.82;;
64065;SDS011;50318;54.760;9.408;2023-02-19T05:47:37;39.75;;;9.52;;
64065;SDS011;50318;54.760;9.408;2023-02-19T05:50:03;29.52;;;9.00;;
64065;SDS011;50318;54.760;9.408;2023-02-19T05:52:29;31.67;;;8.43;;
64065;SDS011;50318;54.760;9.408;2023-02-19T05:54:55;31.60;;;8.70;;
64065;SDS011;50318;54.760;9.408;2023-02-19T05:57:22;35.13;;;8.63;;
64065;SDS011;50318;54.760;9.408;2023-02-19T05:59:48;33.88;;;8.73;;
64065;SDS011;50318;54.760;9.408;2023-02-19T06:02:14;31.60;;;9.10;;
64065;SDS011;50318;54.760;9.408;2023-02-19T06:04:40;29.75;;;8.95;;
64065;SDS011;50318;54.760;9.408;2023-02-19T06:07:06;30.25;;;8.68;;
64065;SDS011;50318;54.760;9.408;2023-02-19T06:09:33;34.58;;;9.05;;
64065;SDS011;50318;54.760;9.408;2023-02-19T06:11:59;36.92;;;8.10;;
64065;SDS011;50318;54.760;9.408;2023-02-19T06:14:26;28.67;;;9.10;;
64065;SDS011;50318;54.760;9.408;2023-02-19T06:16:52;31.58;;;10.13;;
64065;SDS011;50318;54.760;9.408;2023-02-19T06:19:18;29.50;;;8.90;;
64065;SDS011;50318;54.760;9.408;2023-02-19T06:21:44;30.67;;;9.15;;
64065;SDS011;50318;54.760;9.408;2023-02-19T06:24:11;31.55;;;9.82;;
64065;SDS011;50318;54.760;9.408;2023-02-19T06:26:37;38.92;;;10.02;;
64065;SDS011;50318;54.760;9.408;2023-02-19T06:29:03;36.42;;;9.48;;
64065;SDS011;50318;54.760;9.408;2023-02-19T06:31:29;29.85;;;9.00;;
64065;SDS011;50318;54.760;9.408;2023-02-19T06:33:56;33.58;;;9.02;;
64065;SDS011;50318;54.760;9.408;2023-02-19T06:36:22;28.95;;;8.48;;
64065;SDS011;50318;54.760;9.408;2023-02-19T06:38:49;34.60;;;8.07;;
64065;SDS011;50318;54.760;9.408;2023-02-19T06:41:16;29.45;;;7.68;;
64065;SDS011;50318;54.760;9.408;2023-02-19T06:43:42;29.95;;;7.70;;
64065;SDS011;50318;54.760;9.408;2023-02-19T06:46:09;31.65;;;8.13;;
64065;SDS011;50318;54.760;9.408;2023-02-19T06:48:37;35.90;;;8.52;;
64065;SDS011;50318;54.760;9.408;2023-02-19T06:51:03;28.98;;;7.88;;
64065;SDS011;50318;54.760;9.408;2023-02-19T06:53:30;25.55;;;7.40;;
64065;SDS011;50318;54.760;9.408;2023-02-19T06:56:00;32.28;;;7.20;;
64065;SDS011;50318;54.760;9.408;2023-02-19T06:58:31;23.95;;;6.38;;
64065;SDS011;50318;54.760;9.408;2023-02-19T07:00:58;28.98;;;5.70;;
64065;SDS011;50318;54.760;9.408;2023-02-19T07:03:25;31.27;;;5.88;;
64065;SDS011;50318;54.760;9.408;2023-02-19T07:05:51;30.10;;;5.93;;
64065;SDS011;50318;54.760;9.408;2023-02-19T07:08:17;30.38;;;5.45;;
64065;SDS011;50318;54.760;9.408;2023-02-19T07:10:44;29.42;;;5.43;;
64065;SDS011;50318;54.760;9.408;2023-02-19T07:13:10;26.92;;;5.25;;
64065;SDS011;50318;54.760;9.408;2023-02-19T07:15:37;20.75;;;4.93;;
64065;SDS011;50318;54.760;9.408;2023-02-19T07:18:03;30.08;;;5.78;;
64065;SDS011;50318;54.760;9.408;2023-02-19T07:20:29;29.73;;;5.45;;
64065;SDS011;50318;54.760;9.408;2023-02-19T07:22:56;30.10;;;5.57;;
64065;SDS011;50318;54.760;9.408;2023-02-19T07:25:22;25.73;;;5.38;;
64065;SDS011;50318;54.760;9.408;2023-02-19T07:27:48;26.30;;;5.53;;
64065;SDS011;50318;54.760;9.408;2023-02-19T07:30:14;31.08;;;6.38;;
64065;SDS011;50318;54.760;9.408;2023-02-19T07:32:41;25.13;;;6.40;;
64065;SDS011;50318;54.760;9.408;2023-02-19T07:35:07;31.25;;;7.28;;
64065;SDS011;50318;54.760;9.408;2023-02-19T07:37:33;35.67;;;7.57;;
64065;SDS011;50318;54.760;9.408;2023-02-19T07:39:59;31.90;;;8.25;;
64065;SDS011;50318;54.760;9.408;2023-02-19T07:42:32;32.10;;;8.20;;
64065;SDS011;50318;54.760;9.408;2023-02-19T07:44:59;29.25;;;7.70;;
64065;SDS011;50318;54.760;9.408;2023-02-19T07:47:28;30.40;;;7.88;;
64065;SDS011;50318;54.760;9.408;2023-02-19T07:49:54;26.90;;;6.72;;
64065;SDS011;50318;54.760;9.408;2023-02-19T07:52:21;20.60;;;5.43;;
64065;SDS011;50318;54.760;9.408;2023-02-19T07:54:47;28.95;;;5.35;;
64065;SDS011;50318;54.760;9.408;2023-02-19T07:57:13;24.30;;;4.90;;
64065;SDS011;50318;54.760;9.408;2023-02-19T07:59:39;26.88;;;4.70;;
64065;SDS011;50318;54.760;9.408;2023-02-19T08:02:16;30.25;;;4.75;;
64065;SDS011;50318;54.760;9.408;2023-02-19T08:04:43;15.88;;;3.67;;
64065;SDS011;50318;54.760;9.408;2023-02-19T08:07:12;24.98;;;3.95;;
64065;SDS011;50318;54.760;9.408;2023-02-19T08:09:38;27.83;;;4.10;;
64065;SDS011;50318;54.760;9.408;2023-02-19T08:12:04;23.13;;;4.10;;
64065;SDS011;50318;54.760;9.408;2023-02-19T08:14:30;22.77;;;3.78;;
64065;SDS011;50318;54.760;9.408;2023-02-19T08:16:57;24.73;;;3.72;;
64065;SDS011;50318;54.760;9.408;2023-02-19T08:19:23;23.77;;;3.42;;
64065;SDS011;50318;54.760;9.408;2023-02-19T08:21:50;25.63;;;3.85;;
64065;SDS011;50318;54.760;9.408;2023-02-19T08:24:16;21.95;;;3.55;;
64065;SDS011;50318;54.760;9.408;2023-02-19T08:26:42;26.13;;;3.85;;
64065;SDS011;50318;54.760;9.408;2023-02-19T08:29:08;15.30;;;3.42;;
64065;SDS011;50318;54.760;9.408;2023-02-19T08:31:35;21.35;;;3.42;;
64065;SDS011;50318;54.760;9.408;2023-02-19T08:34:01;21.10;;;3.22;;
64065;SDS011;50318;54.760;9.408;2023-02-19T08:36:27;21.02;;;3.10;;
64065;SDS011;50318;54.760;9.408;2023-02-19T08:38:54;20.23;;;3.00;;
64065;SDS011;50318;54.760;9.408;2023-02-19T08:41:20;19.75;;;3.03;;
64065;SDS011;50318;54.760;9.408;2023-02-19T08:43:47;23.15;;;3.72;;
64065;SDS011;50318;54.760;9.408;2023-02-19T08:46:13;21.63;;;3.13;;
64065;SDS011;50318;54.760;9.408;2023-02-19T08:48:39;18.10;;;2.80;;
64065;SDS011;50318;54.760;9.408;2023-02-19T08:51:07;17.67;;;3.10;;
64065;SDS011;50318;54.760;9.408;2023-02-19T08:53:35;21.00;;;3.22;;
64065;SDS011;50318;54.760;9.408;2023-02-19T08:56:04;21.02;;;3.00;;
64065;SDS011;50318;54.760;9.408;2023-02-19T08:58:31;18.98;;;3.03;;
64065;SDS011;50318;54.760;9.408;2023-02-19T09:00:58;18.38;;;2.83;;
64065;SDS011;50318;54.760;9.408;2023-02-19T09:03:27;16.73;;;2.83;;
64065;SDS011;50318;54.760;9.408;2023-02-19T09:05:53;17.77;;;2.97;;
64065;SDS011;50318;54.760;9.408;2023-02-19T09:08:19;20.67;;;2.97;;
64065;SDS011;50318;54.760;9.408;2023-02-19T09:10:55;21.48;;;3.60;;
64065;SDS011;50318;54.760;9.408;2023-02-19T09:13:22;22.25;;;3.13;;
64065;SDS011;50318;54.760;9.408;2023-02-19T09:15:48;13.73;;;2.75;;
64065;SDS011;50318;54.760;9.408;2023-02-19T09:18:15;16.52;;;2.55;;
64065;SDS011;50318;54.760;9.408;2023-02-19T09:20:41;15.82;;;2.30;;
64065;SDS011;50318;54.760;9.408;2023-02-19T09:23:07;16.33;;;2.63;;
64065;SDS011;50318;54.760;9.408;2023-02-19T09:25:33;14.65;;;2.38;;
64065;SDS011;50318;54.760;9.408;2023-02-19T09:27:59;13.18;;;2.17;;
64065;SDS011;50318;54.760;9.408;2023-02-19T09:30:25;17.55;;;2.45;;
64065;SDS011;50318;54.760;9.408;2023-02-19T09:32:52;17.60;;;2.30;;
64065;SDS011;50318;54.760;9.408;2023-02-19T09:35:19;17.27;;;2.45;;
64065;SDS011;50318;54.760;9.408;2023-02-19T09:37:45;15.18;;;2.53;;
64065;SDS011;50318;54.760;9.408;2023-02-19T09:40:11;13.07;;;1.88;;
64065;SDS011;50318;54.760;9.408;2023-02-19T09:42:39;17.90;;;2.80;;
64065;SDS011;50318;54.760;9.408;2023-02-19T09:45:09;11.32;;;1.98;;
64065;SDS011;50318;54.760;9.408;2023-02-19T09:47:44;12.93;;;2.38;;
64065;SDS011;50318;54.760;9.408;2023-02-19T09:50:11;12.88;;;2.40;;
64065;SDS011;50318;54.760;9.408;2023-02-19T09:52:44;16.05;;;2.50;;
64065;SDS011;50318;54.760;9.408;2023-02-19T09:55:32;10.57;;;2.10;;
64065;SDS011;50318;54.760;9.408;2023-02-19T09:58:01;17.73;;;2.10;;
64065;SDS011;50318;54.760;9.408;2023-02-19T10:00:33;9.25;;;1.70;;
64065;SDS011;50318;54.760;9.408;2023-02-19T10:03:08;15.60;;;2.60;;
64065;SDS011;50318;54.760;9.408;2023-02-19T10:05:37;11.60;;;1.85;;
64065;SDS011;50318;54.760;9.408;2023-02-19T10:08:06;12.15;;;2.40;;
64065;SDS011;50318;54.760;9.408;2023-02-19T10:10:37;16.23;;;2.10;;
64065;SDS011;50318;54.760;9.408;2023-02-19T10:13:12;10.95;;;1.98;;
64065;SDS011;50318;54.760;9.408;2023-02-19T10:15:44;12.65;;;2.13;;
64065;SDS011;50318;54.760;9.408;2023-02-19T10:18:16;13.15;;;2.28;;
64065;SDS011;50318;54.760;9.408;2023-02-19T10:20:46;10.30;;;2.00;;
64065;SDS011;50318;54.760;9.408;2023-02-19T10:23:13;13.07;;;1.92;;
64065;SDS011;50318;54.760;9.408;2023-02-19T10:25:45;14.20;;;1.90;;
64065;SDS011;50318;54.760;9.408;2023-02-19T10:28:16;9.75;;;2.22;;
64065;SDS011;50318;54.760;9.408;2023-02-19T10:30:47;9.60;;;2.03;;
64065;SDS011;50318;54.760;9.408;2023-02-19T10:33:19;11.85;;;2.20;;
64065;SDS011;50318;54.760;9.408;2023-02-19T10:36:09;13.90;;;2.15;;
64065;SDS011;50318;54.760;9.408;2023-02-19T10:38:44;10.52;;;2.22;;
64065;SDS011;50318;54.760;9.408;2023-02-19T10:41:16;10.10;;;2.10;;
64065;SDS011;50318;54.760;9.408;2023-02-19T10:43:50;14.50;;;2.83;;
64065;SDS011;50318;54.760;9.408;2023-02-19T10:46:21;12.98;;;3.08;;
64065;SDS011;50318;54.760;9.408;2023-02-19T10:54:05;9.73;;;1.80;;
64065;SDS011;50318;54.760;9.408;2023-02-19T10:56:42;11.50;;;2.03;;
64065;SDS011;50318;54.760;9.408;2023-02-19T11:01:54;16.50;;;2.60;;
64065;SDS011;50318;54.760;9.408;2023-02-19T11:04:20;9.88;;;1.73;;
64065;SDS011;50318;54.760;9.408;2023-02-19T11:06:46;10.85;;;1.98;;
64065;SDS011;50318;54.760;9.408;2023-02-19T11:12:22;7.95;;;1.40;;
64065;SDS011;50318;54.760;9.408;2023-02-19T11:14:51;10.77;;;1.75;;
64065;SDS011;50318;54.760;9.408;2023-02-19T11:17:22;11.00;;;1.60;;
64065;SDS011;50318;54.760;9.408;2023-02-19T11:19:53;8.57;;;1.60;;
64065;SDS011;50318;54.760;9.408;2023-02-19T11:24:51;11.35;;;1.85;;
64065;SDS011;50318;54.760;9.408;2023-02-19T11:27:18;9.40;;;1.75;;
64065;SDS011;50318;54.760;9.408;2023-02-19T11:29:47;8.57;;;1.58;;
64065;SDS011;50318;54.760;9.408;2023-02-19T11:34:48;11.30;;;2.03;;
64065;SDS011;50318;54.760;9.408;2023-02-19T11:37:15;7.97;;;1.50;;
64065;SDS011;50318;54.760;9.408;2023-02-19T11:39:44;10.35;;;1.67;;
64065;SDS011;50318;54.760;9.408;2023-02-19T11:44:46;10.68;;;2.20;;
64065;SDS011;50318;54.760;9.408;2023-02-19T11:55:52;11.35;;;1.90;;
64065;SDS011;50318;54.760;9.408;2023-02-19T12:09:36;6.07;;;1.30;;
64065;SDS011;50318;54.760;9.408;2023-02-19T12:12:09;7.22;;;1.48;;
64065;SDS011;50318;54.760;9.408;2023-02-19T12:23:25;6.03;;;1.10;;
64065;SDS011;50318;54.760;9.408;2023-02-19T12:40:19;8.07;;;1.30;;
64065;SDS011;50318;54.760;9.408;2023-02-19T12:45:39;5.80;;;1.20;;
64065;SDS011;50318;54.760;9.408;2023-02-19T12:48:28;6.32;;;1.38;;
64065;SDS011;50318;54.760;9.408;2023-02-19T12:51:19;6.53;;;1.90;;
64065;SDS011;50318;54.760;9.408;2023-02-19T12:54:00;6.32;;;1.20;;
64065;SDS011;50318;54.760;9.408;2023-02-19T12:56:47;5.93;;;1.40;;
64065;SDS011;50318;54.760;9.408;2023-02-19T12:59:28;8.50;;;1.85;;
64065;SDS011;50318;54.760;9.408;2023-02-19T13:05:12;7.18;;;1.95;;
64065;SDS011;50318;54.760;9.408;2023-02-19T13:07:37;7.22;;;2.13;;
64065;SDS011;50318;54.760;9.408;2023-02-19T13:13:13;10.45;;;2.60;;
64065;SDS011;50318;54.760;9.408;2023-02-19T13:15:46;12.52;;;4.88;;
64065;SDS011;50318;54.760;9.408;2023-02-19T13:18:21;5.75;;;1.30;;
64065;SDS011;50318;54.760;9.408;2023-02-19T13:20:53;4.78;;;1.30;;
64065;SDS011;50318;54.760;9.408;2023-02-19T13:23:24;4.60;;;1.48;;
64065;SDS011;50318;54.760;9.408;2023-02-19T13:25:58;4.82;;;1.35;;
64065;SDS011;50318;54.760;9.408;2023-02-19T13:36:49;6.47;;;1.20;;
64065;SDS011;50318;54.760;9.408;2023-02-19T13:39:16;8.43;;;1.50;;
64065;SDS011;50318;54.760;9.408;2023-02-19T13:41:49;6.95;;;1.50;;
64065;SDS011;50318;54.760;9.408;2023-02-19T13:44:18;5.43;;;1.60;;
64065;SDS011;50318;54.760;9.408;2023-02-19T13:46:47;7.45;;;1.30;;
64065;SDS011;50318;54.760;9.408;2023-02-19T13:51:56;6.45;;;1.42;;
64065;SDS011;50318;54.760;9.408;2023-02-19T13:57:18;9.70;;;1.42;;
64065;SDS011;50318;54.760;9.408;2023-02-19T13:59:57;5.40;;;1.38;;
64065;SDS011;50318;54.760;9.408;2023-02-19T14:04:55;11.35;;;2.35;;
64065;SDS011;50318;54.760;9.408;2023-02-19T14:07:47;7.32;;;1.42;;
64065;SDS011;50318;54.760;9.408;2023-02-19T14:19:14;6.53;;;1.45;;
64065;SDS011;50318;54.760;9.408;2023-02-19T14:22:00;12.77;;;3.33;;
64065;SDS011;50318;54.760;9.408;2023-02-19T14:24:27;6.95;;;3.22;;
64065;SDS011;50318;54.760;9.408;2023-02-19T14:26:54;6.65;;;1.70;;
64065;SDS011;50318;54.760;9.408;2023-02-19T14:29:21;5.88;;;1.77;;
64065;SDS011;50318;54.760;9.408;2023-02-19T14:31:48;5.97;;;1.80;;
64065;SDS011;50318;54.760;9.408;2023-02-19T14:34:15;7.13;;;1.73;;
64065;SDS011;50318;54.760;9.408;2023-02-19T14:42:01;7.07;;;1.65;;
64065;SDS011;50318;54.760;9.408;2023-02-19T14:44:54;6.55;;;1.52;;
64065;SDS011;50318;54.760;9.408;2023-02-19T14:47:23;8.13;;;1.55;;
64065;SDS011;50318;54.760;9.408;2023-02-19T14:52:27;7.78;;;2.35;;
64065;SDS011;50318;54.760;9.408;2023-02-19T14:57:29;9.90;;;2.45;;
64065;SDS011;50318;54.760;9.408;2023-02-19T15:00:00;10.60;;;2.33;;
64065;SDS011;50318;54.760;9.408;2023-02-19T15:02:31;11.50;;;2.53;;
64065;SDS011;50318;54.760;9.408;2023-02-19T15:04:57;10.02;;;2.42;;
64065;SDS011;50318;54.760;9.408;2023-02-19T15:07:25;8.68;;;2.30;;
64065;SDS011;50318;54.760;9.408;2023-02-19T15:09:55;12.85;;;2.80;;
64065;SDS011;50318;54.760;9.408;2023-02-19T15:12:25;6.55;;;1.90;;
64065;SDS011;50318;54.760;9.408;2023-02-19T15:14:55;7.68;;;1.40;;
64065;SDS011;50318;54.760;9.408;2023-02-19T15:17:30;8.52;;;1.42;;
64065;SDS011;50318;54.760;9.408;2023-02-19T15:20:00;6.63;;;1.23;;
64065;SDS011;50318;54.760;9.408;2023-02-19T15:22:30;7.43;;;1.60;;
64065;SDS011;50318;54.760;9.408;2023-02-19T15:25:00;5.35;;;1.45;;
64065;SDS011;50318;54.760;9.408;2023-02-19T15:27:27;7.18;;;2.30;;
64065;SDS011;50318;54.760;9.408;2023-02-19T15:29:53;6.72;;;2.50;;
64065;SDS011;50318;54.760;9.408;2023-02-19T15:32:24;7.68;;;2.28;;
64065;SDS011;50318;54.760;9.408;2023-02-19T15:34:52;5.90;;;1.88;;
64065;SDS011;50318;54.760;9.408;2023-02-19T15:37:19;7.38;;;1.92;;
64065;SDS011;50318;54.760;9.408;2023-02-19T15:39:46;5.28;;;1.50;;
64065;SDS011;50318;54.760;9.408;2023-02-19T15:42:14;5.57;;;1.42;;
64065;SDS011;50318;54.760;9.408;2023-02-19T15:44:45;3.75;;;1.38;;
64065;SDS011;50318;54.760;9.408;2023-02-19T15:47:18;11.57;;;2.42;;
64065;SDS011;50318;54.760;9.408;2023-02-19T15:49:57;8.98;;;1.55;;
64065;SDS011;50318;54.760;9.408;2023-02-19T15:57:46;9.90;;;1.88;;
64065;SDS011;50318;54.760;9.408;2023-02-19T16:00:21;8.65;;;1.80;;
64065;SDS011;50318;54.760;9.408;2023-02-19T16:02:58;9.77;;;1.70;;
64065;SDS011;50318;54.760;9.408;2023-02-19T16:05:25;9.07;;;1.98;;
64065;SDS011;50318;54.760;9.408;2023-02-19T16:10:36;8.70;;;1.83;;
64065;SDS011;50318;54.760;9.408;2023-02-19T16:13:04;7.43;;;1.70;;
64065;SDS011;50318;54.760;9.408;2023-02-19T16:15:31;11.02;;;2.13;;
64065;SDS011;50318;54.760;9.408;2023-02-19T16:17:58;10.13;;;2.70;;
64065;SDS011;50318;54.760;9.408;2023-02-19T16:20:25;10.57;;;2.55;;
64065;SDS011;50318;54.760;9.408;2023-02-19T16:23:01;12.82;;;2.20;;
64065;SDS011;50318;54.760;9.408;2023-02-19T16:28:21;12.65;;;1.75;;
64065;SDS011;50318;54.760;9.408;2023-02-19T16:36:18;12.38;;;2.80;;
64065;SDS011;50318;54.760;9.408;2023-02-19T16:39:18;7.80;;;2.50;;
64065;SDS011;50318;54.760;9.408;2023-02-19T16:46:51;10.00;;;2.08;;
64065;SDS011;50318;54.760;9.408;2023-02-19T16:49:20;11.40;;;1.88;;
64065;SDS011;50318;54.760;9.408;2023-02-19T16:51:48;11.50;;;1.88;;
64065;SDS011;50318;54.760;9.408;2023-02-19T16:54:15;8.35;;;1.90;;
64065;SDS011;50318;54.760;9.408;2023-02-19T16:56:41;7.30;;;2.00;;
64065;SDS011;50318;54.760;9.408;2023-02-19T16:59:08;12.38;;;2.30;;
64065;SDS011;50318;54.760;9.408;2023-02-19T17:01:34;6.85;;;1.77;;
64065;SDS011;50318;54.760;9.408;2023-02-19T17:04:02;8.20;;;1.80;;
64065;SDS011;50318;54.760;9.408;2023-02-19T17:06:30;8.68;;;2.72;;
64065;SDS011;50318;54.760;9.408;2023-02-19T17:08:57;16.05;;;6.70;;
64065;SDS011;50318;54.760;9.408;2023-02-19T17:11:26;12.80;;;4.97;;
64065;SDS011;50318;54.760;9.408;2023-02-19T17:13:52;8.27;;;2.00;;
64065;SDS011;50318;54.760;9.408;2023-02-19T17:16:20;9.38;;;2.42;;
64065;SDS011;50318;54.760;9.408;2023-02-19T17:18:48;10.98;;;1.80;;
64065;SDS011;50318;54.760;9.408;2023-02-19T17:21:25;8.15;;;1.77;;
64065;SDS011;50318;54.760;9.408;2023-02-19T17:23:53;8.48;;;1.88;;
64065;SDS011;50318;54.760;9.408;2023-02-19T17:26:20;10.98;;;1.90;;
64065;SDS011;50318;54.760;9.408;2023-02-19T17:28:51;7.90;;;1.88;;
64065;SDS011;50318;54.760;9.408;2023-02-19T17:31:17;10.40;;;2.40;;
64065;SDS011;50318;54.760;9.408;2023-02-19T17:33:44;10.25;;;1.80;;
64065;SDS011;50318;54.760;9.408;2023-02-19T17:36:15;8.07;;;2.05;;